Time;durP1;ratioP1;P1;durP2;ratioP2;P2;SDS_P1;SDS_P2;PMS_P1;PMS_P2;Temp;Humidity;BMP_temperature;BMP_pressure;BME280_temperature;BME280_humidity;BME280_pressure;Samples;Min_cycle;Max_cycle;Signal;HPM_P1;HPM_P2
2023/08/11 00:00:21;;;;;;;1.35;0.70;;;;;;;30.89;27.58;100793.25;5087965;28;20510;-74
2023/08/11 00:02:51;;;;;;;3.35;0.68;;;;;;;30.90;27.67;100789.63;5084247;28;20048;-78
2023/08/11 00:05:21;;;;;;;1.30;0.80;;;;;;;30.93;26.98;100789.50;5084734;28;20145;-74
2023/08/11 00:07:51;;;;;;;0.55;0.38;;;;;;;30.93;27.38;100792.16;5088119;28;20043;-76
2023/08/11 00:10:20;;;;;;;1.33;0.60;;;;;;;30.86;26.95;100788.97;5101611;28;20484;-75
2023/08/11 00:12:51;;;;;;;2.08;0.73;;;;;;;30.77;27.38;100780.56;5076941;28;20090;-78
2023/08/11 00:15:20;;;;;;;1.27;0.80;;;;;;;30.71;27.57;100787.09;5088754;28;20063;-74
2023/08/11 00:17:51;;;;;;;1.95;0.60;;;;;;;30.63;27.53;100781.31;5086868;28;20047;-76
2023/08/11 00:20:21;;;;;;;0.47;0.47;;;;;;;30.55;28.16;100788.84;5088259;28;20044;-77
2023/08/11 00:22:50;;;;;;;0.73;0.50;;;;;;;30.50;28.41;100790.91;5089217;28;20489;-76
2023/08/11 00:25:18;;;;;;;1.77;0.60;;;;;;;30.50;27.62;100785.56;5091236;28;20040;-78
2023/08/11 00:27:47;;;;;;;0.82;0.60;;;;;;;30.50;28.30;100788.25;5102737;28;20112;-75
2023/08/11 00:30:16;;;;;;;1.33;0.60;;;;;;;30.47;28.72;100784.78;5105930;28;20048;-70
2023/08/11 00:32:45;;;;;;;1.40;0.70;;;;;;;30.39;28.22;100778.13;5113250;28;20528;-73
2023/08/11 00:35:13;;;;;;;0.90;0.60;;;;;;;30.31;28.03;100770.53;5108540;28;20040;-75
2023/08/11 00:37:44;;;;;;;4.40;0.73;;;;;;;30.25;28.46;100774.34;5125571;28;20472;-72
2023/08/11 00:40:13;;;;;;;2.35;0.70;;;;;;;30.19;28.24;100771.13;5116111;28;20051;-78
2023/08/11 00:42:42;;;;;;;0.95;0.50;;;;;;;30.18;28.55;100769.41;5095405;28;20043;-78
2023/08/11 00:45:17;;;;;;;3.45;0.70;;;;;;;30.06;28.42;100762.91;5097144;28;20528;-79
2023/08/11 00:47:46;;;;;;;2.25;0.70;;;;;;;29.98;28.16;100767.78;5096037;28;20060;-83
2023/08/11 00:50:16;;;;;;;1.27;0.60;;;;;;;29.99;28.92;100769.53;5096635;28;20654;-75
2023/08/11 00:52:48;;;;;;;2.58;0.60;;;;;;;29.98;29.48;100767.78;5100436;28;20139;-79
2023/08/11 00:55:20;;;;;;;2.83;0.93;;;;;;;29.96;29.59;100748.31;5098230;28;20140;-75
2023/08/11 00:57:49;;;;;;;5.88;0.98;;;;;;;29.95;29.65;100765.28;5104892;28;20492;-75
2023/08/11 01:00:18;;;;;;;1.50;0.80;;;;;;;29.75;29.42;100767.13;5102429;28;20039;-77
2023/08/11 01:02:47;;;;;;;1.23;0.60;;;;;;;29.61;29.93;100761.59;5103867;28;20097;-72
2023/08/11 01:05:21;;;;;;;1.50;0.77;;;;;;;29.54;30.70;100762.84;5103686;28;20050;-72
2023/08/11 01:07:59;;;;;;;7.93;0.80;;;;;;;29.45;30.46;100772.16;5096464;28;20782;-73
2023/08/11 01:10:38;;;;;;;1.20;0.73;;;;;;;29.40;30.65;100766.19;5105688;28;20127;-79
2023/08/11 01:13:17;;;;;;;3.70;0.85;;;;;;;29.38;31.11;100752.09;5093961;28;20052;-76
2023/08/11 01:15:59;;;;;;;3.45;0.80;;;;;;;29.34;30.97;100756.69;5107890;28;20098;-78
2023/08/11 01:18:29;;;;;;;1.38;0.70;;;;;;;29.32;30.76;100752.38;5102850;28;20047;-74
2023/08/11 01:21:04;;;;;;;2.20;0.70;;;;;;;29.18;31.75;100761.03;5095456;28;20075;-74
2023/08/11 01:23:41;;;;;;;7.95;0.88;;;;;;;29.08;31.26;100751.78;5100670;28;20154;-72
2023/08/11 01:26:10;;;;;;;3.45;0.75;;;;;;;29.01;31.99;100757.34;5099365;28;20048;-73
2023/08/11 01:28:38;;;;;;;1.90;0.80;;;;;;;28.99;31.53;100747.72;5071704;28;20056;-76
2023/08/11 01:31:08;;;;;;;1.60;0.60;;;;;;;28.98;32.08;100757.50;5082131;28;20127;-73
2023/08/11 01:33:39;;;;;;;0.70;0.65;;;;;;;28.97;31.94;100765.56;5078099;28;20096;-71
2023/08/11 01:36:08;;;;;;;0.45;0.40;;;;;;;28.86;32.17;100762.53;5084198;28;20352;-75
2023/08/11 01:38:43;;;;;;;0.70;0.60;;;;;;;28.67;31.92;100760.72;5082191;28;20056;-74
2023/08/11 01:41:12;;;;;;;0.88;0.50;;;;;;;28.60;32.53;100762.81;5076297;28;20045;-73
2023/08/11 01:43:41;;;;;;;2.35;0.57;;;;;;;28.55;32.71;100761.28;5083609;28;20048;-79
2023/08/11 01:46:12;;;;;;;1.70;0.52;;;;;;;28.49;32.58;100766.88;5072381;28;20478;-73
2023/08/11 01:48:41;;;;;;;3.97;0.52;;;;;;;28.32;32.63;100749.00;5074953;28;20052;-78
2023/08/11 01:51:10;;;;;;;0.77;0.55;;;;;;;28.36;32.95;100763.91;5077189;28;20051;-74
2023/08/11 01:53:52;;;;;;;2.92;0.73;;;;;;;28.35;33.26;100771.00;5078233;28;20052;-78
2023/08/11 01:56:22;;;;;;;1.02;0.60;;;;;;;28.31;33.21;100773.84;5074743;28;20052;-76
2023/08/11 01:58:52;;;;;;;1.42;0.57;;;;;;;28.29;33.17;100770.41;5082397;28;20044;-77
2023/08/11 02:01:21;;;;;;;3.38;0.57;;;;;;;28.30;33.17;100774.81;5074420;28;20048;-78
2023/08/11 02:03:50;;;;;;;0.55;0.45;;;;;;;28.29;33.30;100775.72;5087951;28;20056;-78
2023/08/11 02:06:19;;;;;;;3.33;0.73;;;;;;;28.20;32.91;100774.34;5071925;28;20163;-79
2023/08/11 02:08:49;;;;;;;3.17;0.65;;;;;;;28.14;32.88;100770.16;5084898;28;20044;-79
2023/08/11 02:11:18;;;;;;;1.38;0.57;;;;;;;28.11;33.13;100764.97;5085245;28;20040;-83
2023/08/11 02:13:47;;;;;;;0.80;0.60;;;;;;;28.10;32.99;100765.88;5079190;28;20552;-80
2023/08/11 02:16:23;;;;;;;1.30;0.65;;;;;;;28.02;32.62;100768.03;5075584;28;20036;-78
2023/08/11 02:18:52;;;;;;;0.50;0.50;;;;;;;27.91;33.43;100770.28;5081802;28;20119;-80
2023/08/11 02:21:21;;;;;;;0.80;0.55;;;;;;;27.81;33.75;100774.19;5080445;28;20410;-81
2023/08/11 02:23:51;;;;;;;1.17;0.80;;;;;;;27.68;33.82;100776.53;5074254;28;20052;-75
2023/08/11 02:26:21;;;;;;;0.60;0.40;;;;;;;27.52;34.28;100779.81;5091936;28;20469;-76
2023/08/11 02:28:50;;;;;;;0.50;0.43;;;;;;;27.39;34.87;100777.72;5110012;28;20067;-79
2023/08/11 02:31:19;;;;;;;1.10;0.60;;;;;;;27.30;35.27;100777.13;5107417;28;20626;-81
2023/08/11 02:33:48;;;;;;;0.77;0.40;;;;;;;27.22;35.13;100786.34;5103371;28;20048;-79
2023/08/11 02:36:19;;;;;;;1.23;0.40;;;;;;;27.07;35.38;100783.31;5097832;28;20036;-76
2023/08/11 02:38:47;;;;;;;3.33;0.60;;;;;;;26.93;35.30;100785.66;5111903;28;20424;-75
2023/08/11 02:41:18;;;;;;;1.20;0.50;;;;;;;26.79;35.93;100787.97;5107729;28;20047;-76
2023/08/11 02:43:47;;;;;;;0.60;0.50;;;;;;;26.69;35.70;100788.31;5096477;28;20060;-75
2023/08/11 02:46:18;;;;;;;1.00;0.55;;;;;;;26.63;35.83;100795.63;5097866;28;20047;-79
2023/08/11 02:48:47;;;;;;;1.95;0.60;;;;;;;26.55;36.17;100790.63;5096172;28;20048;-76
2023/08/11 02:51:15;;;;;;;0.93;0.60;;;;;;;26.45;36.14;100794.47;5108067;28;20040;-75
2023/08/11 02:53:44;;;;;;;0.57;0.52;;;;;;;26.40;35.93;100793.78;5108557;28;20048;-76
2023/08/11 02:56:23;;;;;;;1.77;0.60;;;;;;;26.31;36.42;100797.63;5103652;28;20043;-78
2023/08/11 02:58:56;;;;;;;2.47;0.60;;;;;;;26.24;36.40;100801.41;5104545;28;20075;-79
2023/08/11 03:01:26;;;;;;;1.13;0.65;;;;;;;26.15;36.72;100799.06;5103939;28;20503;-81
2023/08/11 03:04:03;;;;;;;1.77;0.57;;;;;;;26.07;36.74;100800.22;5109542;28;20040;-80
2023/08/11 03:06:32;;;;;;;2.30;0.70;;;;;;;26.02;36.90;100803.91;5119764;27;20097;-77
2023/08/11 03:09:02;;;;;;;0.85;0.65;;;;;;;25.89;36.49;100807.00;5118738;28;20048;-83
2023/08/11 03:11:30;;;;;;;1.10;0.50;;;;;;;25.79;37.43;100810.81;5109318;28;20477;-77
2023/08/11 03:14:05;;;;;;;0.95;0.40;;;;;;;25.71;36.89;100807.56;5110277;28;20052;-78
2023/08/11 03:16:34;;;;;;;1.48;0.35;;;;;;;25.65;37.58;100808.63;5109861;28;20043;-75
2023/08/11 03:19:03;;;;;;;0.75;0.43;;;;;;;25.56;37.53;100821.28;5104575;28;20069;-76
2023/08/11 03:21:31;;;;;;;0.80;0.52;;;;;;;25.43;37.78;100824.34;5099752;28;20040;-77
2023/08/11 03:24:12;;;;;;;;;;;;;;;;;;;;;
2023/08/11 03:26:41;;;;;;;1.35;0.52;;;;;;;25.23;37.95;100832.88;5103263;28;20148;-80
2023/08/11 03:29:11;;;;;;;0.60;0.40;;;;;;;25.14;38.04;100822.53;5108460;28;20079;-73
2023/08/11 03:31:40;;;;;;;0.90;0.50;;;;;;;25.08;39.21;100822.72;5107301;28;20048;-76
2023/08/11 03:34:10;;;;;;;2.42;0.50;;;;;;;25.00;38.83;100827.38;5116925;28;20036;-75
2023/08/11 03:36:39;;;;;;;3.10;0.50;;;;;;;24.91;39.66;100830.31;5101928;28;20496;-81
2023/08/11 03:39:08;;;;;;;1.77;0.50;;;;;;;24.80;39.24;100828.81;5098376;28;20070;-80
2023/08/11 03:41:36;;;;;;;1.30;0.50;;;;;;;24.74;39.13;100831.66;5106045;28;20036;-84
2023/08/11 03:44:06;;;;;;;0.70;0.50;;;;;;;24.68;39.93;100829.16;5109621;28;20560;-77
2023/08/11 03:46:38;;;;;;;0.50;0.40;;;;;;;24.55;39.73;100828.63;5095932;28;20119;-84
2023/08/11 03:49:19;;;;;;;;;;;;;;;24.50;39.64;100833.19;5109775;28;20497;-83
2023/08/11 03:52:08;;;;;;;;;;;;;;;;;;;;;
2023/08/11 03:54:37;;;;;;;1.35;0.50;;;;;;;24.36;40.96;100848.53;5109555;28;20047;-80
2023/08/11 04:00:06;;;;;;;0.88;0.43;;;;;;;24.18;41.33;100847.22;5072762;28;20515;-83
2023/08/11 04:02:36;;;;;;;0.68;0.47;;;;;;;24.12;40.72;100844.72;5098736;28;20092;-83
2023/08/11 04:05:05;;;;;;;0.90;0.45;;;;;;;24.07;41.32;100846.63;5103328;28;20040;-81
2023/08/11 04:07:34;;;;;;;1.20;0.40;;;;;;;24.03;41.16;100854.63;5099061;28;20065;-82
2023/08/11 04:10:05;;;;;;;1.13;0.50;;;;;;;24.00;41.82;100852.03;5108136;28;20047;-81
2023/08/11 04:12:36;;;;;;;1.40;0.43;;;;;;;23.95;41.49;100851.28;5109906;28;20051;-83
2023/08/11 04:15:05;;;;;;;0.60;0.40;;;;;;;23.90;42.31;100845.25;5105782;28;20683;-81
2023/08/11 04:17:36;;;;;;;1.15;0.65;;;;;;;23.88;42.28;100852.34;5109921;28;20044;-80
2023/08/11 04:20:12;;;;;;;2.22;0.60;;;;;;;23.82;42.40;100847.22;5095980;28;20054;-79
2023/08/11 04:22:41;;;;;;;0.65;0.40;;;;;;;23.78;42.27;100850.84;5101302;28;20047;-81
2023/08/11 04:25:12;;;;;;;1.30;0.55;;;;;;;23.73;42.32;100853.56;5104962;28;20512;-81
2023/08/11 04:27:44;;;;;;;1.35;0.43;;;;;;;23.69;42.50;100857.19;5100494;28;20059;-80
2023/08/11 04:30:16;;;;;;;1.30;0.60;;;;;;;23.63;43.11;100854.66;5107573;28;20083;-82
2023/08/11 04:32:46;;;;;;;1.50;0.70;;;;;;;23.58;42.88;100854.78;5106321;28;20052;-81
2023/08/11 04:35:28;;;;;;;1.42;0.80;;;;;;;23.53;43.10;100855.78;5102552;28;20048;-83
2023/08/11 04:37:59;;;;;;;0.90;0.50;;;;;;;23.47;43.41;100851.50;5104619;28;20063;-82
2023/08/11 04:40:29;;;;;;;2.15;0.50;;;;;;;23.45;43.48;100858.59;5109680;28;20063;-83
2023/08/11 04:42:57;;;;;;;0.60;0.40;;;;;;;23.41;43.70;100862.22;5096210;28;20554;-79
2023/08/11 04:45:33;;;;;;;1.52;0.60;;;;;;;23.36;43.93;100859.66;5108945;28;20612;-83
2023/08/11 04:48:04;;;;;;;0.80;0.50;;;;;;;23.33;43.91;100861.50;5099195;28;20158;-84
2023/08/11 04:50:33;;;;;;;1.50;0.50;;;;;;;23.27;44.28;100851.94;5103027;28;20048;-83
2023/08/11 04:53:01;;;;;;;1.13;0.65;;;;;;;23.23;44.23;100857.31;5105737;28;20140;-85
2023/08/11 04:55:40;;;;;;;1.42;0.50;;;;;;;23.19;44.89;100859.16;5105489;28;20051;-83
2023/08/11 04:58:09;;;;;;;2.03;0.80;;;;;;;23.14;45.22;100869.81;5101504;28;20723;-84
2023/08/11 05:00:38;;;;;;;3.22;0.98;;;;;;;23.10;44.92;100862.88;5110104;28;20050;-82
2023/08/11 05:03:08;;;;;;;1.52;0.50;;;;;;;23.02;45.08;100861.28;5099593;28;20044;-78
2023/08/11 05:05:39;;;;;;;2.13;0.68;;;;;;;22.95;45.59;100868.41;5106740;28;20057;-83
2023/08/11 05:08:07;;;;;;;0.75;0.45;;;;;;;22.87;45.64;100873.84;5096431;28;20059;-80
2023/08/11 05:10:36;;;;;;;2.55;0.65;;;;;;;22.85;46.11;100882.69;5100813;28;20047;-83
2023/08/11 05:13:05;;;;;;;2.80;0.68;;;;;;;22.82;46.54;100881.00;5098471;28;20382;-85
2023/08/11 05:15:40;;;;;;;1.85;0.60;;;;;;;22.77;46.24;100883.72;5109004;28;20126;-81
2023/08/11 05:18:10;;;;;;;2.05;0.60;;;;;;;22.75;46.89;100877.59;5100982;28;20480;-83
2023/08/11 05:20:39;;;;;;;3.35;0.65;;;;;;;22.74;46.80;100878.47;5106907;28;20756;-83
2023/08/11 05:23:07;;;;;;;1.02;0.60;;;;;;;22.69;47.30;100875.06;5101454;28;20100;-80
2023/08/11 05:25:40;;;;;;;0.73;0.60;;;;;;;22.61;47.12;100884.91;5094350;28;20098;-81
2023/08/11 05:28:19;;;;;;;3.53;0.70;;;;;;;22.56;47.59;100884.09;5105828;28;20105;-80
2023/08/11 05:31:11;;;;;;;2.92;0.60;;;;;;;22.50;47.89;100881.59;5108308;28;20051;-79
2023/08/11 05:33:42;;;;;;;1.42;0.65;;;;;;;22.43;48.33;100879.97;5100805;28;20440;-80
2023/08/11 05:36:11;;;;;;;1.30;0.68;;;;;;;22.38;49.12;100883.53;5109573;28;20071;-78
2023/08/11 05:38:43;;;;;;;1.90;0.65;;;;;;;22.32;49.25;100886.28;5097692;28;20143;-78
2023/08/11 05:41:11;;;;;;;2.13;0.70;;;;;;;22.27;49.53;100888.13;5106679;28;20039;-80
2023/08/11 05:43:40;;;;;;;6.85;0.82;;;;;;;22.20;49.33;100889.09;5109728;28;20606;-78
2023/08/11 05:46:08;;;;;;;3.33;0.70;;;;;;;22.18;49.53;100898.78;5103112;28;20082;-79
2023/08/11 05:48:38;;;;;;;1.10;0.70;;;;;;;22.14;49.82;100899.72;5105522;28;20062;-77
2023/08/11 05:51:09;;;;;;;0.93;0.70;;;;;;;22.11;49.92;100905.06;5093976;28;20081;-77
2023/08/11 05:53:37;;;;;;;1.00;0.63;;;;;;;22.06;50.22;100904.22;5106211;28;20058;-77
2023/08/11 05:56:06;;;;;;;2.17;0.60;;;;;;;22.02;50.63;100898.16;5098225;28;20054;-80
2023/08/11 05:58:35;;;;;;;0.95;0.50;;;;;;;21.99;50.27;100899.94;5109075;28;20397;-79
2023/08/11 06:01:08;;;;;;;2.15;0.70;;;;;;;21.95;50.34;100904.41;5098699;28;20052;-77
2023/08/11 06:03:36;;;;;;;2.53;0.82;;;;;;;21.92;50.72;100901.81;5112520;28;20044;-76
2023/08/11 06:06:08;;;;;;;4.60;0.68;;;;;;;21.86;50.79;100894.00;5096517;28;20071;-77
2023/08/11 06:08:40;;;;;;;1.75;0.75;;;;;;;21.82;51.26;100908.97;5104304;28;20083;-80
2023/08/11 06:11:16;;;;;;;0.98;0.60;;;;;;;21.80;51.74;100900.22;5100292;28;20104;-76
2023/08/11 06:13:45;;;;;;;1.13;0.60;;;;;;;21.74;51.65;100913.50;5100667;28;20546;-78
2023/08/11 06:16:14;;;;;;;1.40;0.65;;;;;;;21.68;51.49;100901.28;5101689;28;20492;-78
2023/08/11 06:18:56;;;;;;;1.08;0.60;;;;;;;21.62;51.64;100901.34;5115820;28;20044;-81
2023/08/11 06:21:25;;;;;;;2.10;0.65;;;;;;;21.54;52.20;100906.75;5112569;27;20047;-77
2023/08/11 06:23:55;;;;;;;1.20;0.50;;;;;;;21.48;52.32;100904.19;5106748;27;20046;-78
2023/08/11 06:26:24;;;;;;;2.30;0.60;;;;;;;21.48;52.46;100913.84;5118180;28;20047;-82
2023/08/11 06:28:56;;;;;;;0.52;0.40;;;;;;;21.42;52.87;100901.66;5121251;27;20052;-80
2023/08/11 06:31:24;;;;;;;0.55;0.40;;;;;;;21.39;53.07;100912.16;5117246;28;20117;-78
2023/08/11 06:33:53;;;;;;;1.60;0.73;;;;;;;21.34;53.25;100904.31;5112898;28;20076;-77
2023/08/11 06:36:22;;;;;;;1.33;0.60;;;;;;;21.29;53.17;100900.03;5137282;28;20097;-81
2023/08/11 06:38:57;;;;;;;0.88;0.57;;;;;;;21.24;54.01;100904.47;5135384;28;20051;-80
2023/08/11 06:41:29;;;;;;;0.55;0.43;;;;;;;21.15;54.49;100896.69;5118872;28;20481;-82
2023/08/11 06:43:58;;;;;;;1.45;0.85;;;;;;;21.07;54.44;100904.66;5105574;28;20130;-78
2023/08/11 06:46:29;;;;;;;1.13;0.40;;;;;;;21.04;54.63;100904.69;5109122;28;20036;-77
2023/08/11 06:49:00;;;;;;;0.57;0.40;;;;;;;21.02;55.05;100907.34;5112498;28;20078;-77
2023/08/11 06:51:29;;;;;;;1.97;0.57;;;;;;;21.02;54.61;100909.09;5098190;28;20047;-78
2023/08/11 06:53:58;;;;;;;1.90;0.50;;;;;;;21.00;54.50;100901.22;5097013;28;20044;-78
2023/08/11 06:56:28;;;;;;;0.50;0.40;;;;;;;21.02;55.23;100899.44;5103435;28;20051;-77
2023/08/11 06:59:01;;;;;;;0.60;0.43;;;;;;;21.05;54.66;100904.69;5099561;28;20039;-77
2023/08/11 07:01:30;;;;;;;1.08;0.45;;;;;;;20.99;54.60;100904.75;5109498;28;20048;-79
2023/08/11 07:03:58;;;;;;;0.85;0.55;;;;;;;20.98;54.50;100896.88;5107958;28;20451;-79
2023/08/11 07:06:27;;;;;;;0.85;0.50;;;;;;;20.97;54.51;100901.25;5100264;28;20040;-77
2023/08/11 07:08:57;;;;;;;1.15;0.43;;;;;;;20.95;54.41;100903.03;5098993;28;20425;-77
2023/08/11 07:11:27;;;;;;;2.25;0.55;;;;;;;20.93;54.61;100907.44;5104757;28;20043;-78
2023/08/11 07:13:55;;;;;;;2.60;0.70;;;;;;;20.89;54.86;100901.34;5099512;28;20039;-80
2023/08/11 07:16:24;;;;;;;2.47;0.52;;;;;;;20.86;55.11;100908.41;5105603;28;20104;-77
2023/08/11 07:18:53;;;;;;;0.88;0.50;;;;;;;20.82;55.23;100907.56;5103809;28;20043;-79
2023/08/11 07:21:21;;;;;;;0.65;0.50;;;;;;;20.78;55.27;100910.25;5100082;28;20090;-80
2023/08/11 07:23:53;;;;;;;0.43;0.38;;;;;;;20.76;55.29;100912.03;5096538;28;20515;-78
2023/08/11 07:26:21;;;;;;;0.70;0.50;;;;;;;20.66;55.59;100901.59;5096522;28;20044;-78
2023/08/11 07:28:52;;;;;;;1.30;0.50;;;;;;;20.69;56.03;100905.94;5093862;28;20048;-78
2023/08/11 07:31:25;;;;;;;0.40;0.40;;;;;;;20.67;55.87;100907.72;5110087;28;20052;-79
2023/08/11 07:33:53;;;;;;;3.70;0.50;;;;;;;20.66;55.83;100914.75;5099943;28;20072;-78
2023/08/11 07:36:22;;;;;;;1.17;0.40;;;;;;;20.63;55.74;100906.00;5113136;28;20044;-78
2023/08/11 07:38:50;;;;;;;1.48;0.43;;;;;;;20.63;55.79;100912.13;5101447;28;20068;-82
2023/08/11 07:41:19;;;;;;;0.82;0.40;;;;;;;20.62;55.80;100910.41;5108703;28;20051;-80
2023/08/11 07:43:54;;;;;;;1.45;0.40;;;;;;;20.60;55.63;100917.41;5098660;28;20628;-80
2023/08/11 07:46:22;;;;;;;0.40;0.32;;;;;;;20.60;56.30;100909.53;5097882;28;20048;-80
2023/08/11 07:48:53;;;;;;;0.60;0.40;;;;;;;20.55;56.15;100906.06;5098297;28;20488;-77
2023/08/11 07:51:26;;;;;;;1.58;0.30;;;;;;;20.52;56.11;100908.69;5104010;28;20050;-83
2023/08/11 07:53:55;;;;;;;1.45;0.40;;;;;;;20.51;56.67;100915.72;5102404;28;20140;-82
2023/08/11 07:56:24;;;;;;;0.82;0.45;;;;;;;20.47;57.01;100905.25;5105213;28;20062;-79
2023/08/11 07:58:55;;;;;;;2.58;0.60;;;;;;;20.44;56.57;100910.53;5099001;28;20047;-81
2023/08/11 08:01:23;;;;;;;0.63;0.30;;;;;;;20.42;57.29;100917.56;5108598;28;20051;-83
2023/08/11 08:03:52;;;;;;;1.35;0.55;;;;;;;20.37;57.79;100919.34;5103234;28;20051;-80
2023/08/11 08:06:20;;;;;;;0.95;0.60;;;;;;;20.29;57.59;100928.19;5112303;28;20043;-79
2023/08/11 08:08:49;;;;;;;4.43;0.65;;;;;;;20.23;57.95;100912.44;5103861;28;20397;-82
2023/08/11 08:11:18;;;;;;;2.63;0.80;;;;;;;20.18;58.20;100909.00;5110612;28;20107;-82
2023/08/11 08:13:46;;;;;;;0.40;0.40;;;;;;;20.14;58.14;100917.78;5112203;28;20055;-79
2023/08/11 08:16:24;;;;;;;0.75;0.50;;;;;;;20.13;57.69;100915.16;5107766;27;20070;-78
2023/08/11 08:18:53;;;;;;;0.60;0.40;;;;;;;20.09;57.58;100927.44;5108660;28;20405;-78
2023/08/11 08:21:21;;;;;;;0.85;0.57;;;;;;;20.06;57.56;100917.81;5108218;28;20036;-84
2023/08/11 08:23:52;;;;;;;0.65;0.35;;;;;;;20.00;58.31;100903.88;5098624;28;20047;-80
2023/08/11 08:26:25;;;;;;;2.47;1.67;;;;;;;19.99;58.13;100917.88;5106916;28;20067;-80
2023/08/11 08:28:59;;;;;;;1.90;0.45;;;;;;;20.01;57.98;100926.63;5085696;28;20048;-76
2023/08/11 08:31:45;;;;;;;0.30;0.30;;;;;;;19.98;58.39;100921.41;5084002;28;20126;-81
2023/08/11 08:34:14;;;;;;;0.45;0.40;;;;;;;19.95;58.66;100921.41;5080816;28;20086;-80
2023/08/11 08:36:43;;;;;;;0.57;0.35;;;;;;;19.92;58.87;100916.19;5069040;28;20048;-84
2023/08/11 08:39:11;;;;;;;0.55;0.30;;;;;;;19.88;58.96;100926.72;5081758;28;20039;-79
2023/08/11 08:41:45;;;;;;;1.70;0.50;;;;;;;19.87;58.95;100917.06;5090430;28;20055;-80
2023/08/11 08:44:21;;;;;;;0.50;0.40;;;;;;;19.85;59.17;100918.81;5083075;28;20413;-79
2023/08/11 08:46:55;;;;;;;0.68;0.40;;;;;;;19.83;59.32;100915.34;5095844;28;20109;-79
2023/08/11 08:49:27;;;;;;;2.28;0.60;;;;;;;19.80;59.43;100914.50;5090224;28;20101;-78
2023/08/11 08:51:56;;;;;;;1.40;0.40;;;;;;;19.78;58.94;100909.25;5081807;28;20053;-79
2023/08/11 08:54:25;;;;;;;1.08;0.35;;;;;;;19.75;60.32;100911.91;5085355;28;20292;-80
2023/08/11 08:56:55;;;;;;;1.05;0.47;;;;;;;19.74;59.88;100907.50;5079352;28;20063;-77
2023/08/11 08:59:29;;;;;;;0.82;0.55;;;;;;;19.71;60.54;100906.69;5082656;28;20044;-77
2023/08/11 09:01:59;;;;;;;1.30;0.50;;;;;;;19.67;60.42;100906.63;5079569;28;20131;-79
2023/08/11 09:04:28;;;;;;;0.30;0.30;;;;;;;19.64;60.42;100916.31;5079256;28;20055;-79
2023/08/11 09:06:57;;;;;;;0.50;0.40;;;;;;;19.60;60.67;100914.56;5079960;28;20339;-79
2023/08/11 09:09:27;;;;;;;0.75;0.45;;;;;;;19.58;60.66;100921.56;5091034;28;20163;-76
2023/08/11 09:11:56;;;;;;;1.45;0.60;;;;;;;19.56;60.51;100920.72;5081449;28;20048;-78
2023/08/11 09:14:25;;;;;;;0.85;0.30;;;;;;;19.55;60.19;100921.59;5089131;28;20509;-80
2023/08/11 09:17:02;;;;;;;0.57;0.55;;;;;;;19.53;59.96;100918.09;5094761;28;20066;-80
2023/08/11 09:19:33;;;;;;;2.35;0.40;;;;;;;19.49;60.68;100926.88;5099946;28;20040;-82
2023/08/11 09:22:02;;;;;;;0.50;0.40;;;;;;;19.45;60.60;100926.91;5095206;28;20493;-81
2023/08/11 09:24:31;;;;;;;1.63;0.45;;;;;;;19.43;61.36;100927.78;5105753;28;20028;-81
2023/08/11 09:27:03;;;;;;;1.75;0.55;;;;;;;19.38;62.03;100930.44;5107816;28;20044;-80
2023/08/11 09:29:37;;;;;;;0.90;0.60;;;;;;;19.36;62.67;100932.19;5121658;28;20048;-81
2023/08/11 09:32:10;;;;;;;0.30;0.30;;;;;;;19.34;63.05;100933.06;5125881;27;20039;-80
2023/08/11 09:34:41;;;;;;;0.47;0.38;;;;;;;19.31;62.23;100931.34;5121108;28;20051;-80
2023/08/11 09:37:18;;;;;;;1.40;0.32;;;;;;;19.28;62.61;100944.44;5109072;28;20066;-82
2023/08/11 09:39:47;;;;;;;0.43;0.30;;;;;;;19.12;63.25;100925.25;5105303;27;20073;-82
2023/08/11 09:42:16;;;;;;;0.40;0.40;;;;;;;19.12;63.51;100940.13;5104481;28;20044;-80
2023/08/11 09:44:45;;;;;;;1.27;0.50;;;;;;;19.14;64.62;100947.09;5114578;28;20047;-81
2023/08/11 09:47:15;;;;;;;1.30;0.43;;;;;;;19.10;64.06;100949.75;5108409;28;20051;-80
2023/08/11 09:49:44;;;;;;;0.63;0.43;;;;;;;19.09;63.88;100945.38;5107752;27;20052;-80
2023/08/11 09:52:14;;;;;;;1.08;0.60;;;;;;;18.99;63.88;100932.28;5115627;28;20043;-79
2023/08/11 09:54:44;;;;;;;1.00;0.35;;;;;;;19.05;64.00;100942.75;5109667;28;20054;-79
2023/08/11 09:57:24;;;;;;;1.00;0.47;;;;;;;19.00;63.88;100941.91;5108783;28;20488;-81
2023/08/11 09:59:56;;;;;;;1.08;0.60;;;;;;;18.93;64.60;100931.44;5100460;28;20071;-76
2023/08/11 10:02:31;;;;;;;1.55;0.57;;;;;;;18.97;63.88;100948.91;5111063;28;20050;-79
2023/08/11 10:05:05;;;;;;;0.75;0.40;;;;;;;18.93;64.23;100953.28;5104240;28;20508;-77
2023/08/11 10:07:39;;;;;;;0.68;0.35;;;;;;;18.91;64.03;100946.28;5105901;28;20048;-78
2023/08/11 10:10:14;;;;;;;0.40;0.40;;;;;;;18.82;64.11;100950.66;5113558;28;20044;-78
2023/08/11 10:12:49;;;;;;;0.77;0.45;;;;;;;18.81;64.26;100953.31;5099729;28;20507;-78
2023/08/11 10:15:24;;;;;;;0.32;0.28;;;;;;;18.74;64.70;100952.41;5100155;28;20056;-80
2023/08/11 10:17:55;;;;;;;0.57;0.50;;;;;;;18.69;65.04;100951.53;5100665;28;20060;-78
2023/08/11 10:20:24;;;;;;;1.02;0.40;;;;;;;18.65;65.11;100943.69;5101457;28;20123;-79
2023/08/11 10:22:53;;;;;;;4.68;1.98;;;;;;;18.59;65.28;100953.28;5114088;28;20043;-77
2023/08/11 10:25:22;;;;;;;0.77;0.60;;;;;;;18.57;65.35;100952.41;5114866;28;20054;-79
2023/08/11 10:27:51;;;;;;;2.15;0.63;;;;;;;18.54;66.07;100949.78;5105725;28;20155;-79
2023/08/11 10:30:23;;;;;;;0.40;0.30;;;;;;;18.52;66.36;100962.00;5100388;28;20044;-79
2023/08/11 10:32:56;;;;;;;;;;;;;;;18.50;66.69;100957.66;5112180;28;20050;-80
2023/08/11 10:35:36;;;;;;;0.43;0.40;;;;;;;18.46;66.67;100964.63;5101940;28;19920;-79
2023/08/11 10:38:06;;;;;;;1.33;0.30;;;;;;;18.42;66.89;100962.91;5107758;28;20039;-80
2023/08/11 10:40:40;;;;;;;0.30;0.30;;;;;;;18.36;67.01;100963.75;5100348;28;20044;-79
2023/08/11 10:43:08;;;;;;;1.58;0.60;;;;;;;18.32;67.29;100963.75;5097060;28;20052;-78
2023/08/11 10:45:39;;;;;;;1.42;0.50;;;;;;;18.27;66.87;100965.50;5104597;28;20649;-80
2023/08/11 10:48:11;;;;;;;2.60;0.45;;;;;;;18.21;67.59;100969.84;5096943;28;20052;-77
2023/08/11 10:50:41;;;;;;;;;;;;;;;18.16;67.40;100974.22;5108210;28;20056;-78
2023/08/11 10:53:19;;;;;;;0.82;0.60;;;;;;;18.13;67.74;100971.56;5117738;28;20375;-82
2023/08/11 10:56:00;;;;;;;0.28;0.28;;;;;;;18.07;68.65;100973.31;5102442;28;20074;-78
2023/08/11 10:58:31;;;;;;;1.33;0.50;;;;;;;18.02;68.70;100975.03;5115601;28;20075;-80
2023/08/11 11:01:09;;;;;;;2.38;0.50;;;;;;;17.97;69.09;100977.66;5109863;28;20136;-77
2023/08/11 11:03:38;;;;;;;0.52;0.32;;;;;;;17.92;69.00;100976.78;5097474;28;20044;-81
2023/08/11 11:06:08;;;;;;;0.50;0.32;;;;;;;17.87;69.41;100976.75;5102680;28;20039;-78
2023/08/11 11:08:38;;;;;;;0.43;0.40;;;;;;;17.86;69.42;100974.13;5103610;28;20051;-78
2023/08/11 11:11:07;;;;;;;0.68;0.40;;;;;;;17.82;69.68;100977.59;5098938;28;20167;-77
2023/08/11 11:13:35;;;;;;;0.40;0.35;;;;;;;17.78;69.48;100980.19;5107731;28;20134;-78
2023/08/11 11:16:04;;;;;;;0.70;0.40;;;;;;;17.75;69.04;100979.28;5114764;28;20594;-78
2023/08/11 11:18:33;;;;;;;1.83;0.47;;;;;;;17.73;69.88;100983.63;5106618;28;20063;-78
2023/08/11 11:21:04;;;;;;;0.75;0.47;;;;;;;17.70;70.20;100975.78;5099743;28;20048;-79
2023/08/11 11:23:35;;;;;;;0.50;0.38;;;;;;;17.66;70.66;100977.53;5108779;28;20039;-80
2023/08/11 11:26:04;;;;;;;1.00;0.52;;;;;;;17.61;71.11;100981.84;5111268;28;20051;-78
2023/08/11 11:28:32;;;;;;;0.40;0.30;;;;;;;17.55;71.68;100977.47;5096446;28;20052;-80
2023/08/11 11:31:01;;;;;;;3.47;0.82;;;;;;;17.53;72.06;100986.19;5110211;28;20040;-79
2023/08/11 11:33:29;;;;;;;1.75;0.60;;;;;;;17.49;72.35;100980.06;5108606;28;20055;-80
2023/08/11 11:35:58;;;;;;;0.63;0.40;;;;;;;17.47;72.03;100978.31;5100070;28;20044;-77
2023/08/11 11:38:27;;;;;;;0.55;0.30;;;;;;;17.48;72.17;100987.91;5112173;28;20050;-79
2023/08/11 11:40:57;;;;;;;1.77;0.60;;;;;;;17.45;72.98;100987.88;5097950;28;20493;-79
2023/08/11 11:43:29;;;;;;;3.13;0.52;;;;;;;17.44;73.47;100991.38;5097455;28;20052;-79
2023/08/11 11:45:58;;;;;;;0.87;0.53;;;;;;;17.41;73.04;100997.47;5105927;28;20048;-80
2023/08/11 11:48:27;;;;;;;4.57;0.57;;;;;;;17.36;74.50;100994.84;5110319;28;20044;-78